Time;durP1;ratioP1;P1;durP2;ratioP2;P2;SDS_P1;SDS_P2;PMS_P1;PMS_P2;Temp;Humidity;BMP_temperature;BMP_pressure;BME280_temperature;BME280_humidity;BME280_pressure;Samples;Min_cycle;Max_cycle;Signal;HPM_P1;HPM_P2
2022/07/18 00:01:53;;;;;;;;;;;24.50;41.40;;;;;;4995800;28;19971;-81
2022/07/18 00:04:21;;;;;;;;;;;24.40;41.60;;;;;;4996512;28;19934;-79
2022/07/18 00:06:47;;;;;;;;;;;24.30;41.90;;;;;;4997997;28;19933;-81
2022/07/18 00:09:14;;;;;;;;;;;24.30;41.90;;;;;;4992614;28;19930;-81
2022/07/18 00:11:40;;;;;;;;;;;24.30;42.10;;;;;;4999945;28;19930;-80
2022/07/18 00:14:07;;;;;;;;;;;24.20;42.10;;;;;;4996812;28;19937;-80
2022/07/18 00:16:34;;;;;;;;;;;24.20;42.00;;;;;;4999674;28;19930;-79
2022/07/18 00:19:02;;;;;;;;;;;24.20;42.20;;;;;;4993530;28;19968;-80
2022/07/18 00:21:30;;;;;;;;;;;24.10;42.60;;;;;;4995671;28;19930;-80
2022/07/18 00:23:56;;;;;;;;;;;24.00;42.40;;;;;;5000536;28;19929;-80
2022/07/18 00:26:23;;;;;;;;;;;24.00;42.50;;;;;;5000058;28;19930;-81
2022/07/18 00:28:49;;;;;;;;;;;24.00;42.70;;;;;;5000633;28;19929;-81
2022/07/18 00:31:16;;;;;;;;;;;23.90;42.60;;;;;;4998330;28;20480;-80
2022/07/18 00:33:43;;;;;;;;;;;23.90;42.70;;;;;;5003466;28;20420;-80
2022/07/18 00:36:09;;;;;;;;;;;23.80;42.90;;;;;;5003599;28;19934;-80
2022/07/18 00:38:37;;;;;;;;;;;23.80;43.00;;;;;;4998509;28;19937;-82
2022/07/18 00:41:04;;;;;;;;;;;23.70;43.00;;;;;;5004041;28;19929;-79
2022/07/18 00:43:30;;;;;;;;;;;23.70;42.90;;;;;;5000791;28;20341;-81
2022/07/18 00:45:57;;;;;;;;;;;23.60;43.20;;;;;;4995930;28;20481;-81
2022/07/18 00:48:24;;;;;;;;;;;23.60;43.30;;;;;;5003181;28;19941;-81
2022/07/18 00:50:50;;;;;;;;;;;23.50;43.30;;;;;;5009185;28;19929;-81
2022/07/18 00:53:17;;;;;;;;;;;23.50;43.50;;;;;;5000300;28;19930;-81
2022/07/18 00:55:46;;;;;;;;;;;23.50;43.60;;;;;;5003492;28;19929;-80
2022/07/18 00:58:13;;;;;;;;;;;23.40;43.80;;;;;;4997256;28;19969;-81
2022/07/18 01:03:24;;;;;;;;;;;23.30;43.80;;;;;;4997713;28;19940;-80
2022/07/18 01:05:51;;;;;;;;;;;23.30;43.90;;;;;;5004099;28;19948;-81
2022/07/18 01:08:17;;;;;;;;;;;23.30;44.00;;;;;;4996533;28;19937;-80
2022/07/18 01:10:45;;;;;;;;;;;23.20;44.10;;;;;;5001234;28;19951;-82
2022/07/18 01:13:12;;;;;;;;;;;23.20;44.10;;;;;;4998417;28;19933;-81
2022/07/18 01:15:38;;;;;;;;;;;23.10;44.20;;;;;;4999348;28;19930;-80
2022/07/18 01:18:05;;;;;;;;;;;23.00;44.20;;;;;;4997454;28;19930;-81
2022/07/18 01:20:33;;;;;;;;;;;23.00;44.30;;;;;;5001221;28;20684;-81
2022/07/18 01:23:00;;;;;;;;;;;23.00;44.30;;;;;;4995300;28;19975;-81
2022/07/18 01:25:27;;;;;;;;;;;22.90;44.30;;;;;;5001666;28;20545;-80
2022/07/18 01:27:55;;;;;;;;;;;22.90;44.40;;;;;;4999587;28;20352;-80
2022/07/18 01:30:21;;;;;;;;;;;22.90;44.40;;;;;;4995736;28;20526;-80
2022/07/18 01:32:55;;;;;;;;;;;22.90;44.50;;;;;;4997513;28;20460;-80
2022/07/18 01:35:22;;;;;;;;;;;22.80;44.70;;;;;;4999433;28;19933;-81
2022/07/18 01:37:51;;;;;;;;;;;22.80;45.00;;;;;;5000495;28;19937;-80
2022/07/18 01:40:17;;;;;;;;;;;22.70;44.90;;;;;;5003305;28;19934;-79
2022/07/18 01:42:44;;;;;;;;;;;22.70;45.10;;;;;;5003175;28;20768;-80
2022/07/18 01:45:11;;;;;;;;;;;22.60;45.10;;;;;;4994915;28;19930;-80
2022/07/18 01:47:37;;;;;;;;;;;22.60;45.30;;;;;;4996670;28;20379;-82
2022/07/18 01:50:05;;;;;;;;;;;22.50;45.20;;;;;;5002801;28;20437;-80
2022/07/18 01:52:31;;;;;;;;;;;22.50;45.20;;;;;;5001244;28;19930;-80
2022/07/18 01:54:59;;;;;;;;;;;22.50;45.50;;;;;;5002810;28;19940;-80
2022/07/18 01:57:26;;;;;;;;;;;22.40;45.50;;;;;;4996489;28;19940;-80
2022/07/18 01:59:52;;;;;;;;;;;22.40;45.60;;;;;;4995861;28;19936;-80
2022/07/18 02:02:19;;;;;;;;;;;22.40;45.60;;;;;;4995196;28;19929;-79
2022/07/18 02:05:01;;;;;;;;;;;22.30;45.70;;;;;;4999029;28;19936;-80
2022/07/18 02:07:27;;;;;;;;;;;22.30;46.00;;;;;;5000979;28;19930;-81
2022/07/18 02:09:54;;;;;;;;;;;22.20;46.20;;;;;;4998253;28;19933;-80
2022/07/18 02:12:22;;;;;;;;;;;22.20;46.40;;;;;;4997004;28;20762;-81
2022/07/18 02:14:49;;;;;;;;;;;22.20;46.20;;;;;;4995467;28;19930;-79
2022/07/18 02:17:15;;;;;;;;;;;22.10;46.10;;;;;;4998603;28;19930;-81
2022/07/18 02:19:42;;;;;;;;;;;22.10;45.90;;;;;;5001853;28;20640;-80
2022/07/18 02:22:08;;;;;;;;;;;22.10;45.90;;;;;;4995185;28;20405;-80
2022/07/18 02:24:35;;;;;;;;;;;22.00;46.00;;;;;;4994425;28;19929;-80
2022/07/18 02:27:02;;;;;;;;;;;22.00;45.90;;;;;;4999753;28;19941;-81
2022/07/18 02:29:29;;;;;;;;;;;22.00;45.80;;;;;;4998252;28;19936;-80
2022/07/18 02:31:56;;;;;;;;;;;22.00;46.00;;;;;;5001805;28;19957;-79
2022/07/18 02:34:23;;;;;;;;;;;21.90;46.10;;;;;;4995865;28;19955;-80
2022/07/18 02:36:50;;;;;;;;;;;21.80;46.10;;;;;;4999631;28;19929;-80
2022/07/18 02:39:17;;;;;;;;;;;21.80;46.10;;;;;;4994629;28;19941;-80
2022/07/18 02:41:44;;;;;;;;;;;21.80;46.60;;;;;;4997199;28;19941;-80
2022/07/18 02:44:10;;;;;;;;;;;21.80;46.70;;;;;;5001494;28;20663;-81
2022/07/18 02:46:38;;;;;;;;;;;21.70;46.50;;;;;;4995093;28;19941;-82
2022/07/18 02:49:05;;;;;;;;;;;21.70;46.50;;;;;;4992229;28;19929;-81
2022/07/18 02:51:31;;;;;;;;;;;21.60;46.40;;;;;;5000377;28;19934;-81
2022/07/18 02:53:58;;;;;;;;;;;21.60;46.40;;;;;;4999261;28;21262;-82
2022/07/18 02:56:24;;;;;;;;;;;21.60;46.70;;;;;;5000252;28;19930;-81
2022/07/18 02:58:51;;;;;;;;;;;21.50;46.80;;;;;;4989461;28;20347;-81
2022/07/18 03:01:17;;;;;;;;;;;21.50;47.20;;;;;;4998759;28;20444;-80
2022/07/18 03:03:45;;;;;;;;;;;21.50;47.30;;;;;;5005315;28;19941;-82
2022/07/18 03:06:12;;;;;;;;;;;21.40;47.40;;;;;;5000045;28;19929;-80
2022/07/18 03:08:38;;;;;;;;;;;21.40;47.30;;;;;;4994908;28;21899;-81
2022/07/18 03:11:05;;;;;;;;;;;21.40;47.50;;;;;;4996977;28;20807;-81
2022/07/18 03:13:32;;;;;;;;;;;21.30;47.50;;;;;;4995570;28;19930;-81
2022/07/18 03:15:59;;;;;;;;;;;21.30;47.70;;;;;;4999040;28;19933;-81
2022/07/18 03:18:25;;;;;;;;;;;21.30;47.70;;;;;;5004213;28;19940;-81
2022/07/18 03:20:54;;;;;;;;;;;21.20;47.70;;;;;;4998051;28;19937;-80
2022/07/18 03:23:20;;;;;;;;;;;21.20;47.70;;;;;;4993652;28;19977;-81
2022/07/18 03:25:47;;;;;;;;;;;21.20;47.80;;;;;;5005181;28;19937;-81
2022/07/18 03:28:14;;;;;;;;;;;21.10;47.80;;;;;;4998958;28;19933;-81
2022/07/18 03:30:40;;;;;;;;;;;21.10;47.90;;;;;;4998292;28;20012;-80
2022/07/18 03:33:07;;;;;;;;;;;21.10;48.00;;;;;;4995375;28;19929;-80
2022/07/18 03:35:33;;;;;;;;;;;21.00;47.90;;;;;;5001771;28;19936;-79
2022/07/18 03:38:01;;;;;;;;;;;21.00;47.90;;;;;;4995139;28;20739;-81
2022/07/18 03:40:28;;;;;;;;;;;21.00;48.00;;;;;;4996607;28;19940;-81
2022/07/18 03:42:54;;;;;;;;;;;20.90;48.00;;;;;;4999768;28;19944;-82
2022/07/18 03:45:21;;;;;;;;;;;20.80;48.00;;;;;;4992893;28;19937;-80
2022/07/18 03:47:47;;;;;;;;;;;20.90;48.10;;;;;;4998892;28;19936;-81
2022/07/18 03:50:14;;;;;;;;;;;20.80;48.30;;;;;;5005028;28;19925;-80
2022/07/18 03:52:41;;;;;;;;;;;20.80;48.20;;;;;;5001396;28;19930;-81
2022/07/18 03:55:09;;;;;;;;;;;20.80;48.20;;;;;;4999782;28;19929;-80
2022/07/18 03:57:35;;;;;;;;;;;20.70;48.20;;;;;;5003571;28;19929;-80
2022/07/18 04:00:02;;;;;;;;;;;20.70;48.30;;;;;;4999214;28;19929;-80
2022/07/18 04:02:29;;;;;;;;;;;20.70;48.40;;;;;;5007498;28;19937;-82
2022/07/18 04:04:55;;;;;;;;;;;20.70;48.40;;;;;;5006127;28;19929;-80
2022/07/18 04:07:22;;;;;;;;;;;20.60;48.50;;;;;;4998509;28;20197;-82
2022/07/18 04:09:48;;;;;;;;;;;20.60;48.60;;;;;;4997057;28;19933;-80
2022/07/18 04:12:16;;;;;;;;;;;20.50;48.60;;;;;;5001628;28;19929;-80
2022/07/18 04:14:43;;;;;;;;;;;20.50;48.60;;;;;;4997790;28;19933;-80
2022/07/18 04:17:09;;;;;;;;;;;20.50;48.70;;;;;;5002769;28;19929;-81
2022/07/18 04:19:36;;;;;;;;;;;20.50;48.80;;;;;;5004711;28;19929;-81
2022/07/18 04:22:02;;;;;;;;;;;20.40;48.80;;;;;;5001718;28;19937;-82
2022/07/18 04:24:29;;;;;;;;;;;20.40;48.90;;;;;;5002300;28;19930;-81
2022/07/18 04:26:55;;;;;;;;;;;20.40;48.80;;;;;;5006716;28;19933;-82
2022/07/18 04:29:23;;;;;;;;;;;20.40;48.90;;;;;;5002841;28;19940;-81
2022/07/18 04:31:50;;;;;;;;;;;20.40;49.00;;;;;;4999854;28;19926;-83
2022/07/18 04:34:17;;;;;;;;;;;20.30;49.00;;;;;;5000011;28;19936;-83
2022/07/18 04:36:43;;;;;;;;;;;20.30;49.10;;;;;;5001857;28;19929;-81
2022/07/18 04:39:10;;;;;;;;;;;20.30;49.20;;;;;;4999787;28;19951;-82
2022/07/18 04:41:36;;;;;;;;;;;20.30;49.30;;;;;;4997594;28;19930;-78
2022/07/18 04:44:03;;;;;;;;;;;20.30;49.30;;;;;;5003788;28;19934;-78
2022/07/18 04:46:31;;;;;;;;;;;20.20;49.30;;;;;;4998272;28;19937;-80
2022/07/18 04:48:57;;;;;;;;;;;20.20;49.30;;;;;;5004511;28;20298;-79
2022/07/18 04:51:24;;;;;;;;;;;20.20;49.50;;;;;;5007037;28;19929;-80
2022/07/18 04:53:51;;;;;;;;;;;20.10;49.60;;;;;;5003752;28;19929;-80
2022/07/18 04:56:17;;;;;;;;;;;20.10;49.60;;;;;;5010849;28;19937;-79
2022/07/18 04:58:44;;;;;;;;;;;20.10;49.70;;;;;;5000190;28;19937;-79
2022/07/18 05:01:10;;;;;;;;;;;20.10;49.70;;;;;;5003474;28;19930;-78
2022/07/18 05:03:38;;;;;;;;;;;20.10;49.80;;;;;;5000862;28;19940;-77
2022/07/18 05:06:05;;;;;;;;;;;20.10;49.80;;;;;;5000481;28;19945;-78
2022/07/18 05:08:31;;;;;;;;;;;20.10;49.90;;;;;;4999983;28;19937;-79
2022/07/18 05:10:58;;;;;;;;;;;20.10;50.00;;;;;;4998038;28;19945;-78
2022/07/18 05:13:24;;;;;;;;;;;20.00;50.00;;;;;;5001234;28;19929;-80
2022/07/18 05:15:51;;;;;;;;;;;20.00;50.20;;;;;;5000443;28;20013;-79
2022/07/18 05:18:17;;;;;;;;;;;20.00;50.20;;;;;;5001812;28;19929;-79
2022/07/18 05:20:46;;;;;;;;;;;20.00;50.20;;;;;;5001097;28;19933;-79
2022/07/18 05:23:14;;;;;;;;;;;19.90;50.20;;;;;;4999108;28;19933;-80
2022/07/18 05:25:41;;;;;;;;;;;19.90;50.40;;;;;;4999286;28;20397;-82
2022/07/18 05:28:07;;;;;;;;;;;19.90;50.40;;;;;;4998485;28;19955;-78
2022/07/18 05:30:34;;;;;;;;;;;19.90;50.40;;;;;;4997776;28;20385;-80
2022/07/18 05:33:01;;;;;;;;;;;19.90;50.40;;;;;;5000812;28;20315;-78
2022/07/18 05:35:27;;;;;;;;;;;19.90;50.50;;;;;;5001425;28;20306;-81
2022/07/18 05:37:55;;;;;;;;;;;19.70;53.00;;;;;;5003627;28;20043;-79
2022/07/18 05:40:22;;;;;;;;;;;19.60;53.50;;;;;;5002755;28;20449;-79
2022/07/18 05:42:49;;;;;;;;;;;19.50;53.60;;;;;;5008233;28;20511;-79
2022/07/18 05:45:16;;;;;;;;;;;19.50;53.40;;;;;;5001689;28;20024;-79
2022/07/18 05:47:43;;;;;;;;;;;19.50;53.40;;;;;;5006130;28;19937;-81
2022/07/18 05:50:10;;;;;;;;;;;19.50;53.30;;;;;;5005575;28;19967;-79
2022/07/18 05:52:37;;;;;;;;;;;19.50;52.90;;;;;;5006417;28;19930;-79
2022/07/18 05:55:06;;;;;;;;;;;19.60;52.80;;;;;;5003028;28;20151;-79
2022/07/18 05:57:32;;;;;;;;;;;19.60;52.60;;;;;;5006369;28;19936;-78
2022/07/18 05:59:59;;;;;;;;;;;19.60;51.90;;;;;;4996220;28;19940;-80
2022/07/18 06:02:25;;;;;;;;;;;19.60;52.40;;;;;;4996403;28;19934;-78
2022/07/18 06:04:52;;;;;;;;;;;19.60;53.00;;;;;;5004862;28;20337;-79
2022/07/18 06:07:18;;;;;;;;;;;19.60;53.50;;;;;;5002516;28;19952;-80
2022/07/18 06:09:45;;;;;;;;;;;19.60;53.70;;;;;;5003176;28;19950;-78
2022/07/18 06:12:13;;;;;;;;;;;19.70;53.00;;;;;;5003392;28;19952;-78
2022/07/18 06:14:39;;;;;;;;;;;19.70;53.30;;;;;;5004188;28;19936;-79
2022/07/18 06:17:06;;;;;;;;;;;19.80;52.80;;;;;;4994299;28;20412;-77
2022/07/18 06:19:33;;;;;;;;;;;19.80;52.50;;;;;;4996774;28;20545;-79
2022/07/18 06:22:00;;;;;;;;;;;19.90;51.70;;;;;;5001756;28;19929;-78
2022/07/18 06:24:26;;;;;;;;;;;20.00;52.00;;;;;;4998068;28;19952;-77
2022/07/18 06:26:53;;;;;;;;;;;20.00;51.70;;;;;;4999188;28;20425;-78
2022/07/18 06:29:21;;;;;;;;;;;19.90;51.40;;;;;;5003437;28;19929;-76
2022/07/18 06:31:47;;;;;;;;;;;20.10;50.60;;;;;;5002225;28;19929;-77
2022/07/18 06:34:14;;;;;;;;;;;20.20;50.70;;;;;;4998422;28;19929;-77
2022/07/18 06:36:40;;;;;;;;;;;20.20;50.50;;;;;;4999379;28;19937;-76
2022/07/18 06:39:10;;;;;;;;;;;20.20;51.20;;;;;;4997610;28;19933;-79
2022/07/18 06:41:37;;;;;;;;;;;20.30;50.00;;;;;;4996968;28;19929;-78
2022/07/18 06:44:04;;;;;;;;;;;20.30;50.40;;;;;;5000108;28;20449;-78
2022/07/18 06:46:32;;;;;;;;;;;20.30;50.20;;;;;;5002434;28;20406;-78
2022/07/18 06:48:58;;;;;;;;;;;20.30;50.00;;;;;;4997722;28;19937;-78
2022/07/18 06:51:25;;;;;;;;;;;19.30;48.70;;;;;;4996307;28;19936;-79
2022/07/18 06:53:52;;;;;;;;;;;20.50;49.90;;;;;;5002830;28;19930;-79
2022/07/18 06:56:18;;;;;;;;;;;20.40;49.10;;;;;;4998956;28;19955;-77
2022/07/18 06:58:48;;;;;;;;;;;20.50;49.50;;;;;;5001151;28;19929;-76
2022/07/18 07:01:15;;;;;;;;;;;20.50;48.90;;;;;;4996805;28;19972;-78
2022/07/18 07:03:43;;;;;;;;;;;20.60;49.40;;;;;;4998340;28;19934;-78
2022/07/18 07:06:10;;;;;;;;;;;20.70;49.20;;;;;;4997649;28;19937;-76
2022/07/18 07:08:36;;;;;;;;;;;20.60;48.40;;;;;;4996675;28;20309;-79
2022/07/18 07:11:03;;;;;;;;;;;22.10;49.10;;;;;;4998454;28;20603;-78
2022/07/18 07:13:30;;;;;;;;;;;20.70;49.00;;;;;;4994912;28;19937;-77
2022/07/18 07:15:56;;;;;;;;;;;20.70;48.80;;;;;;4997186;28;19940;-77
2022/07/18 07:18:23;;;;;;;;;;;20.70;48.70;;;;;;4997842;28;19930;-78
2022/07/18 07:20:51;;;;;;;;;;;20.80;47.80;;;;;;4997714;28;19940;-77
2022/07/18 07:23:17;;;;;;;;;;;20.80;48.30;;;;;;4998447;28;19929;-79
2022/07/18 07:25:44;;;;;;;;;;;20.80;48.20;;;;;;4995801;28;19936;-79
2022/07/18 07:28:10;;;;;;;;;;;20.80;48.10;;;;;;4998753;28;19940;-78
2022/07/18 07:30:37;;;;;;;;;;;20.90;47.40;;;;;;4997281;28;20409;-77
2022/07/18 07:33:03;;;;;;;;;;;20.80;47.30;;;;;;4996869;28;20383;-78
2022/07/18 07:35:30;;;;;;;;;;;20.90;47.20;;;;;;4997860;28;19964;-78
2022/07/18 07:37:59;;;;;;;;;;;21.00;47.70;;;;;;5000873;28;19933;-79
2022/07/18 07:40:27;;;;;;;;;;;21.00;47.10;;;;;;4996168;28;20329;-79
2022/07/18 07:43:04;;;;;;;;;;;21.00;47.50;;;;;;5000901;28;19934;-78
2022/07/18 07:45:31;;;;;;;;;;;21.00;47.40;;;;;;4995087;28;19941;-78
2022/07/18 07:47:57;;;;;;;;;;;21.10;47.40;;;;;;4995111;28;19952;-77
2022/07/18 07:50:24;;;;;;;;;;;21.10;46.70;;;;;;4996950;28;19937;-79
2022/07/18 07:52:51;;;;;;;;;;;21.10;46.70;;;;;;4996834;28;19964;-80
2022/07/18 07:55:19;;;;;;;;;;;21.20;47.20;;;;;;4994751;28;19936;-79
2022/07/18 07:57:45;;;;;;;;;;;21.20;47.00;;;;;;4997226;28;19930;-80
2022/07/18 08:00:12;;;;;;;;;;;21.20;46.40;;;;;;4995555;28;19937;-79
2022/07/18 08:02:50;;;;;;;;;;;21.20;46.90;;;;;;5001437;28;19930;-80
2022/07/18 08:05:17;;;;;;;;;;;21.30;46.80;;;;;;5001411;28;19979;-80
2022/07/18 08:07:43;;;;;;;;;;;21.30;46.60;;;;;;4991542;28;19979;-80
2022/07/18 08:10:10;;;;;;;;;;;21.30;45.90;;;;;;4995385;28;20017;-80
2022/07/18 08:12:38;;;;;;;;;;;21.30;45.90;;;;;;4991494;28;19940;-81
2022/07/18 08:15:05;;;;;;;;;;;21.40;46.40;;;;;;4998186;28;19952;-80
2022/07/18 08:17:32;;;;;;;;;;;21.40;46.40;;;;;;5000246;28;19976;-79
2022/07/18 08:19:59;;;;;;;;;;;21.50;45.80;;;;;;5008604;28;19929;-79
2022/07/18 08:22:25;;;;;;;;;;;21.50;46.40;;;;;;5004571;28;19930;-79
2022/07/18 08:24:52;;;;;;;;;;;21.50;46.20;;;;;;5003906;28;19995;-79
2022/07/18 08:27:18;;;;;;;;;;;21.50;45.70;;;;;;5007060;28;19934;-79
2022/07/18 08:29:46;;;;;;;;;;;21.60;46.10;;;;;;5002321;28;19940;-79
2022/07/18 08:32:13;;;;;;;;;;;21.60;45.50;;;;;;5003062;28;20715;-79
2022/07/18 08:34:40;;;;;;;;;;;21.70;45.90;;;;;;5005908;28;20014;-79
2022/07/18 08:37:06;;;;;;;;;;;21.70;45.90;;;;;;5001731;28;20154;-79
2022/07/18 08:39:33;;;;;;;;;;;21.70;45.80;;;;;;5007264;28;19929;-80
2022/07/18 08:42:00;;;;;;;;;;;21.80;45.20;;;;;;5003139;28;20270;-80
2022/07/18 08:44:28;;;;;;;;;;;21.90;45.70;;;;;;5005950;28;19933;-80
2022/07/18 08:46:57;;;;;;;;;;;21.90;45.10;;;;;;5010558;28;20759;-79
2022/07/18 08:49:24;;;;;;;;;;;22.00;45.50;;;;;;5003660;28;19934;-79
2022/07/18 08:51:51;;;;;;;;;;;22.00;44.80;;;;;;5009437;28;19930;-80
2022/07/18 08:54:18;;;;;;;;;;;22.10;44.80;;;;;;5011585;28;19936;-79
2022/07/18 08:56:45;;;;;;;;;;;22.10;44.70;;;;;;5005865;28;19929;-79
2022/07/18 08:59:11;;;;;;;;;;;22.20;45.70;;;;;;5003634;28;19937;-79
2022/07/18 09:01:38;;;;;;;;;;;22.20;44.60;;;;;;5008179;28;19941;-80
2022/07/18 09:04:19;;;;;;;;;;;22.20;45.00;;;;;;5006128;28;19938;-80
2022/07/18 09:06:47;;;;;;;;;;;22.30;45.00;;;;;;5005229;28;20433;-80
2022/07/18 09:09:14;;;;;;;;;;;22.40;44.80;;;;;;5011148;28;19941;-80
2022/07/18 09:11:51;;;;;;;;;;;22.40;44.70;;;;;;5005619;28;19929;-80
2022/07/18 09:14:28;;;;;;;;;;;22.50;44.70;;;;;;5000954;28;19937;-79
2022/07/18 09:17:00;;;;;;;;;;;22.50;44.70;;;;;;5006034;28;19929;-79
2022/07/18 09:19:28;;;;;;;;;;;22.60;44.60;;;;;;5008183;28;19933;-80
2022/07/18 09:21:54;;;;;;;;;;;22.60;44.50;;;;;;5003621;28;19937;-79
2022/07/18 09:24:21;;;;;;;;;;;22.70;44.30;;;;;;5007221;28;20623;-81
2022/07/18 09:26:50;;;;;;;;;;;22.80;44.20;;;;;;5020003;28;20082;-78
2022/07/18 09:29:17;;;;;;;;;;;22.90;44.20;;;;;;5000657;28;20348;-78
2022/07/18 09:31:48;;;;;;;;;;;22.90;44.10;;;;;;5006303;28;20005;-79
2022/07/18 09:34:15;;;;;;;;;;;22.90;44.00;;;;;;5003243;28;19936;-78
2022/07/18 09:36:56;;;;;;;;;;;23.00;43.90;;;;;;5004431;28;19929;-78
2022/07/18 09:39:23;;;;;;;;;;;23.10;43.70;;;;;;5010634;28;20361;-78
2022/07/18 09:41:50;;;;;;;;;;;23.10;43.60;;;;;;5005151;28;19929;-78
2022/07/18 09:44:17;;;;;;;;;;;23.30;43.50;;;;;;5000826;28;19929;-78
2022/07/18 09:46:58;;;;;;;;;;;23.30;43.50;;;;;;5007435;28;20352;-78
2022/07/18 09:49:29;;;;;;;;;;;23.40;43.20;;;;;;5002631;28;19972;-78
2022/07/18 09:52:04;;;;;;;;;;;23.40;42.90;;;;;;5007519;28;19933;-78
2022/07/18 09:54:36;;;;;;;;;;;23.50;42.80;;;;;;4999106;28;19940;-78
2022/07/18 09:57:02;;;;;;;;;;;23.60;42.70;;;;;;4995987;28;20638;-79
2022/07/18 09:59:29;;;;;;;;;;;23.70;42.60;;;;;;5003845;28;19930;-80
2022/07/18 10:01:56;;;;;;;;;;;23.80;42.50;;;;;;4999267;28;20251;-79
2022/07/18 10:04:23;;;;;;;;;;;23.80;42.30;;;;;;5000800;28;20346;-79
2022/07/18 10:06:49;;;;;;;;;;;23.90;42.00;;;;;;5002716;28;19936;-79
2022/07/18 10:09:17;;;;;;;;;;;24.00;41.80;;;;;;5000719;28;20571;-81
2022/07/18 10:11:44;;;;;;;;;;;24.10;41.60;;;;;;4998306;28;19937;-80
2022/07/18 10:14:11;;;;;;;;;;;24.20;41.40;;;;;;4998188;28;19940;-80
2022/07/18 10:16:38;;;;;;;;;;;24.30;41.40;;;;;;5005997;28;19929;-81
2022/07/18 10:19:05;;;;;;;;;;;24.30;41.30;;;;;;4996139;28;19950;-79
2022/07/18 10:21:32;;;;;;;;;;;24.40;41.20;;;;;;4996578;28;19929;-80
2022/07/18 10:24:00;;;;;;;;;;;24.50;41.10;;;;;;4996199;28;19944;-80
2022/07/18 10:26:29;;;;;;;;;;;24.60;40.60;;;;;;4997880;28;19937;-80
2022/07/18 10:29:14;;;;;;;;;;;24.70;40.20;;;;;;5001315;28;19929;-80
2022/07/18 10:31:59;;;;;;;;;;;24.80;39.80;;;;;;4996404;28;19940;-80
2022/07/18 10:34:29;;;;;;;;;;;24.90;39.50;;;;;;4997620;28;19936;-81
2022/07/18 10:37:08;;;;;;;;;;;25.00;39.40;;;;;;4997792;28;19930;-80
2022/07/18 10:39:35;;;;;;;;;;;25.10;39.30;;;;;;4999123;28;20646;-79
2022/07/18 10:42:17;;;;;;;;;;;25.10;38.90;;;;;;4999291;28;20289;-79
2022/07/18 10:44:44;;;;;;;;;;;25.20;38.80;;;;;;4995382;28;19930;-80
2022/07/18 10:47:12;;;;;;;;;;;25.30;38.70;;;;;;5002286;28;20699;-81
2022/07/18 10:49:57;;;;;;;;;;;25.40;38.80;;;;;;4996223;28;19929;-80
2022/07/18 10:52:44;;;;;;;;;;;25.50;38.50;;;;;;4999614;28;21347;-79
2022/07/18 10:55:31;;;;;;;;;;;25.60;38.30;;;;;;4997221;28;19929;-80
2022/07/18 10:58:16;;;;;;;;;;;25.70;38.00;;;;;;4989018;28;19944;-80
2022/07/18 11:00:47;;;;;;;;;;;25.80;38.20;;;;;;5000550;28;19930;-80
2022/07/18 11:03:15;;;;;;;;;;;25.90;38.10;;;;;;4998013;28;19929;-82
2022/07/18 11:05:43;;;;;;;;;;;26.00;38.10;;;;;;5000678;28;19930;-78
2022/07/18 11:08:19;;;;;;;;;;;26.10;38.10;;;;;;4996852;28;19932;-77
2022/07/18 11:11:09;;;;;;;;;;;26.20;38.20;;;;;;5001593;28;19969;-79
2022/07/18 11:13:36;;;;;;;;;;;26.20;37.80;;;;;;5000047;28;20128;-78
2022/07/18 11:16:06;;;;;;;;;;;26.30;37.60;;;;;;4998441;28;19937;-79
2022/07/18 11:18:33;;;;;;;;;;;26.40;37.90;;;;;;5001489;28;20434;-79
2022/07/18 11:21:00;;;;;;;;;;;26.50;37.70;;;;;;4998321;28;19944;-80
2022/07/18 11:23:27;;;;;;;;;;;26.60;37.70;;;;;;4996562;28;19933;-80
2022/07/18 11:25:55;;;;;;;;;;;26.70;37.70;;;;;;4999009;28;19929;-80
2022/07/18 11:28:23;;;;;;;;;;;26.80;37.40;;;;;;4999725;28;20457;-80
2022/07/18 11:30:59;;;;;;;;;;;26.90;37.20;;;;;;4998346;28;20341;-81
2022/07/18 11:33:28;;;;;;;;;;;26.90;37.00;;;;;;4996217;28;19937;-81
2022/07/18 11:36:02;;;;;;;;;;;27.00;37.20;;;;;;4998062;28;20637;-80
2022/07/18 11:38:29;;;;;;;;;;;27.10;37.10;;;;;;4995884;28;19934;-78
2022/07/18 11:40:55;;;;;;;;;;;27.20;36.90;;;;;;4995122;28;19953;-78
2022/07/18 11:43:22;;;;;;;;;;;27.30;37.00;;;;;;4998543;28;19984;-78
2022/07/18 11:45:58;;;;;;;;;;;27.40;36.90;;;;;;4998449;28;19930;-78
2022/07/18 11:48:25;;;;;;;;;;;27.40;36.70;;;;;;4996534;28;19929;-80
2022/07/18 11:50:53;;;;;;;;;;;27.50;36.50;;;;;;4994756;28;19933;-79
2022/07/18 11:53:19;;;;;;;;;;;27.60;36.40;;;;;;4988482;28;19929;-79
2022/07/18 11:55:48;;;;;;;;;;;27.70;36.20;;;;;;4995283;28;20141;-80
2022/07/18 11:58:16;;;;;;;;;;;27.80;36.20;;;;;;4992504;28;19934;-80
2022/07/18 12:00:42;;;;;;;;;;;27.90;36.10;;;;;;4990209;28;19934;-80
2022/07/18 12:03:10;;;;;;;;;;;27.90;35.80;;;;;;4991248;28;19929;-79
2022/07/18 12:05:38;;;;;;;;;;;28.00;35.50;;;;;;4992383;28;19929;-80
2022/07/18 12:08:22;;;;;;;;;;;28.10;35.60;;;;;;4990917;28;19944;-80
2022/07/18 12:11:03;;;;;;;;;;;28.10;35.60;;;;;;4989270;28;19949;-81
2022/07/18 12:13:39;;;;;;;;;;;28.20;35.60;;;;;;4993128;28;20705;-80
2022/07/18 12:16:06;;;;;;;;;;;28.30;35.40;;;;;;4990179;28;19936;-80
2022/07/18 12:18:32;;;;;;;;;;;28.40;34.90;;;;;;4998256;28;19940;-80
2022/07/18 12:21:07;;;;;;;;;;;28.50;35.00;;;;;;4990646;28;20528;-81
2022/07/18 12:23:33;;;;;;;;;;;28.60;34.90;;;;;;4994822;28;19930;-80
2022/07/18 12:26:00;;;;;;;;;;;28.60;34.50;;;;;;4995643;28;21371;-80
2022/07/18 12:28:29;;;;;;;;;;;28.70;34.40;;;;;;5000238;28;20303;-78
2022/07/18 12:30:56;;;;;;;;;;;28.70;34.50;;;;;;4992314;28;19933;-79
2022/07/18 12:33:22;;;;;;;;;;;28.80;34.50;;;;;;4997105;28;20755;-80
2022/07/18 12:35:55;;;;;;;;;;;28.80;34.00;;;;;;4996968;28;20041;-80
2022/07/18 12:38:22;;;;;;;;;;;28.90;34.10;;;;;;4991233;28;20147;-80
2022/07/18 12:40:52;;;;;;;;;;;28.90;33.60;;;;;;4990180;28;19934;-79
2022/07/18 12:43:23;;;;;;;;;;;29.00;33.50;;;;;;4997284;28;19933;-79
2022/07/18 12:45:52;;;;;;;;;;;29.10;33.80;;;;;;4996083;28;19953;-80
2022/07/18 12:48:18;;;;;;;;;;;29.10;34.20;;;;;;4992909;28;19929;-79
2022/07/18 12:50:49;;;;;;;;;;;29.20;33.70;;;;;;4994714;28;19930;-80
2022/07/18 12:53:16;;;;;;;;;;;29.20;33.70;;;;;;4996122;28;19940;-80
2022/07/18 12:55:42;;;;;;;;;;;29.30;33.70;;;;;;4994216;28;21068;-80
2022/07/18 12:58:09;;;;;;;;;;;29.40;33.80;;;;;;5004478;28;19968;-80
2022/07/18 13:00:35;;;;;;;;;;;29.40;33.70;;;;;;4995241;28;19937;-79
2022/07/18 13:03:03;;;;;;;;;;;29.60;33.70;;;;;;4999683;28;19980;-80
2022/07/18 13:05:30;;;;;;;;;;;29.60;33.80;;;;;;5006735;28;20464;-80
2022/07/18 13:07:57;;;;;;;;;;;29.70;33.30;;;;;;4993607;28;19934;-80
2022/07/18 13:10:24;;;;;;;;;;;29.70;32.70;;;;;;5001655;28;19929;-79
2022/07/18 13:12:50;;;;;;;;;;;29.70;32.50;;;;;;5007440;28;19929;-79
2022/07/18 13:15:20;;;;;;;;;;;29.80;32.00;;;;;;5002699;28;19936;-79
2022/07/18 13:17:46;;;;;;;;;;;29.90;32.90;;;;;;5011617;28;19932;-79
2022/07/18 13:20:14;;;;;;;;;;;30.00;32.50;;;;;;5005116;28;19940;-80
2022/07/18 13:22:41;;;;;;;;;;;30.10;32.60;;;;;;5007637;28;20052;-79
2022/07/18 13:25:09;;;;;;;;;;;30.10;32.50;;;;;;5006729;28;19940;-80
2022/07/18 13:27:36;;;;;;;;;;;30.20;32.70;;;;;;5011693;28;19936;-80
2022/07/18 13:30:05;;;;;;;;;;;30.40;31.10;;;;;;5003932;28;19929;-80
2022/07/18 13:32:31;;;;;;;;;;;30.50;31.20;;;;;;5011011;28;19933;-81
2022/07/18 13:34:58;;;;;;;;;;;30.60;30.10;;;;;;5006545;28;19930;-81
2022/07/18 13:37:26;;;;;;;;;;;30.60;30.40;;;;;;5006961;28;19929;-81
2022/07/18 13:39:52;;;;;;;;;;;30.70;30.80;;;;;;5008782;28;19937;-82
2022/07/18 13:42:19;;;;;;;;;;;30.60;31.10;;;;;;5003373;28;19929;-81
2022/07/18 13:44:46;;;;;;;;;;;30.70;31.30;;;;;;5007371;28;19937;-80
2022/07/18 13:47:12;;;;;;;;;;;30.70;31.00;;;;;;5009828;28;19933;-81
2022/07/18 13:49:39;;;;;;;;;;;30.70;30.20;;;;;;4997868;28;20303;-82
2022/07/18 13:52:05;;;;;;;;;;;30.70;30.00;;;;;;5000604;28;19929;-79
2022/07/18 13:54:33;;;;;;;;;;;30.80;30.10;;;;;;5004954;28;19933;-80
2022/07/18 13:57:00;;;;;;;;;;;30.80;30.70;;;;;;5007193;28;19929;-80
2022/07/18 13:59:26;;;;;;;;;;;31.00;30.30;;;;;;5000528;28;19933;-79
2022/07/18 14:01:53;;;;;;;;;;;31.40;28.80;;;;;;4998957;28;19937;-80
2022/07/18 14:04:20;;;;;;;;;;;31.70;29.00;;;;;;5002134;28;20753;-80
2022/07/18 14:06:46;;;;;;;;;;;31.90;29.00;;;;;;5001535;28;19929;-81
2022/07/18 14:09:13;;;;;;;;;;;32.00;29.00;;;;;;5000764;28;19936;-80
2022/07/18 14:11:41;;;;;;;;;;;32.20;29.00;;;;;;5002350;28;19934;-81
2022/07/18 14:14:07;;;;;;;;;;;32.30;29.10;;;;;;5004558;28;19929;-80
2022/07/18 14:16:34;;;;;;;;;;;32.50;29.20;;;;;;5000553;28;19933;-80
2022/07/18 14:19:00;;;;;;;;;;;32.50;29.60;;;;;;5000735;28;19933;-81
2022/07/18 14:21:27;;;;;;;;;;;32.60;29.80;;;;;;5001987;28;19929;-79
2022/07/18 14:23:54;;;;;;;;;;;32.70;29.60;;;;;;5003001;28;20357;-81